sensor_id;sensor_type;location;lat;lon;timestamp;temperature;humidity
3202;DHT22;34843;48.744;8.958;2023-10-08T00:00:26;11.60;99.90
3202;DHT22;34843;48.744;8.958;2023-10-08T00:03:10;11.60;99.90
3202;DHT22;34843;48.744;8.958;2023-10-08T00:05:42;11.60;99.90
3202;DHT22;34843;48.744;8.958;2023-10-08T00:08:08;11.60;99.90
3202;DHT22;34843;48.744;8.958;2023-10-08T00:10:37;11.70;99.90
3202;DHT22;34843;48.744;8.958;2023-10-08T00:13:05;11.70;99.90
3202;DHT22;34843;48.744;8.958;2023-10-08T00:15:38;11.70;99.90
3202;DHT22;34843;48.744;8.958;2023-10-08T00:18:10;11.70;99.90
3202;DHT22;34843;48.744;8.958;2023-10-08T00:20:37;11.70;99.90
3202;DHT22;34843;48.744;8.958;2023-10-08T00:23:22;11.80;99.90
3202;DHT22;34843;48.744;8.958;2023-10-08T00:25:54;11.80;99.90
3202;DHT22;34843;48.744;8.958;2023-10-08T00:28:20;11.80;99.90
3202;DHT22;34843;48.744;8.958;2023-10-08T00:30:46;11.90;99.90
3202;DHT22;34843;48.744;8.958;2023-10-08T00:33:13;12.00;99.90
3202;DHT22;34843;48.744;8.958;2023-10-08T00:35:40;12.00;99.90
3202;DHT22;34843;48.744;8.958;2023-10-08T00:38:09;12.00;99.90
3202;DHT22;34843;48.744;8.958;2023-10-08T00:40:41;12.00;99.90
3202;DHT22;34843;48.744;8.958;2023-10-08T00:45:58;12.10;99.90
3202;DHT22;34843;48.744;8.958;2023-10-08T00:48:25;12.20;99.90
3202;DHT22;34843;48.744;8.958;2023-10-08T00:50:54;12.30;99.90
3202;DHT22;34843;48.744;8.958;2023-10-08T00:53:35;12.30;99.90
3202;DHT22;34843;48.744;8.958;2023-10-08T00:56:05;12.30;99.90
3202;DHT22;34843;48.744;8.958;2023-10-08T00:58:39;12.30;99.90
3202;DHT22;34843;48.744;8.958;2023-10-08T01:01:06;12.40;99.90
3202;DHT22;34843;48.744;8.958;2023-10-08T01:03:37;12.40;99.90
3202;DHT22;34843;48.744;8.958;2023-10-08T01:06:09;12.40;99.90
3202;DHT22;34843;48.744;8.958;2023-10-08T01:08:36;12.40;99.90
3202;DHT22;34843;48.744;8.958;2023-10-08T01:11:18;12.40;99.90
3202;DHT22;34843;48.744;8.958;2023-10-08T01:13:45;12.40;99.90
3202;DHT22;34843;48.744;8.958;2023-10-08T01:16:11;12.30;99.90
3202;DHT22;34843;48.744;8.958;2023-10-08T01:18:37;12.30;99.90
3202;DHT22;34843;48.744;8.958;2023-10-08T01:21:08;12.30;99.90
3202;DHT22;34843;48.744;8.958;2023-10-08T01:23:37;12.20;99.90
3202;DHT22;34843;48.744;8.958;2023-10-08T01:26:03;12.10;99.90
3202;DHT22;34843;48.744;8.958;2023-10-08T01:28:40;12.10;99.90
3202;DHT22;34843;48.744;8.958;2023-10-08T01:31:08;12.00;99.90
3202;DHT22;34843;48.744;8.958;2023-10-08T01:33:37;12.00;99.90
3202;DHT22;34843;48.744;8.958;2023-10-08T01:36:04;11.80;99.90
3202;DHT22;34843;48.744;8.958;2023-10-08T01:38:33;11.80;99.90
3202;DHT22;34843;48.744;8.958;2023-10-08T01:40:58;11.80;99.90
3202;DHT22;34843;48.744;8.958;2023-10-08T01:43:43;11.70;99.90
3202;DHT22;34843;48.744;8.958;2023-10-08T01:46:09;11.60;99.90
3202;DHT22;34843;48.744;8.958;2023-10-08T01:48:38;11.60;99.90
3202;DHT22;34843;48.744;8.958;2023-10-08T01:51:04;11.60;99.90
3202;DHT22;34843;48.744;8.958;2023-10-08T01:53:39;11.60;99.90
3202;DHT22;34843;48.744;8.958;2023-10-08T01:56:05;11.40;99.90
3202;DHT22;34843;48.744;8.958;2023-10-08T01:58:31;11.40;99.90
3202;DHT22;34843;48.744;8.958;2023-10-08T02:00:58;11.30;99.90
3202;DHT22;34843;48.744;8.958;2023-10-08T02:03:25;11.20;99.90
3202;DHT22;34843;48.744;8.958;2023-10-08T02:05:50;11.20;99.90
3202;DHT22;34843;48.744;8.958;2023-10-08T02:08:19;11.10;99.90
3202;DHT22;34843;48.744;8.958;2023-10-08T02:10:45;11.00;99.90
3202;DHT22;34843;48.744;8.958;2023-10-08T02:13:13;11.00;99.90
3202;DHT22;34843;48.744;8.958;2023-10-08T02:15:50;11.00;99.90
3202;DHT22;34843;48.744;8.958;2023-10-08T02:18:20;10.90;99.90
3202;DHT22;34843;48.744;8.958;2023-10-08T02:20:45;10.80;99.90
3202;DHT22;34843;48.744;8.958;2023-10-08T02:23:11;10.80;99.90
3202;DHT22;34843;48.744;8.958;2023-10-08T02:25:38;10.80;99.90
3202;DHT22;34843;48.744;8.958;2023-10-08T02:28:08;10.70;99.90
3202;DHT22;34843;48.744;8.958;2023-10-08T02:30:35;10.70;99.90
3202;DHT22;34843;48.744;8.958;2023-10-08T02:33:02;10.70;99.90
3202;DHT22;34843;48.744;8.958;2023-10-08T02:35:27;10.60;99.90
3202;DHT22;34843;48.744;8.958;2023-10-08T02:37:53;10.60;99.90
3202;DHT22;34843;48.744;8.958;2023-10-08T02:40:20;10.60;99.90
3202;DHT22;34843;48.744;8.958;2023-10-08T02:42:57;10.60;99.90
3202;DHT22;34843;48.744;8.958;2023-10-08T02:45:25;10.50;99.90
3202;DHT22;34843;48.744;8.958;2023-10-08T02:47:50;10.50;99.90
3202;DHT22;34843;48.744;8.958;2023-10-08T02:50:18;10.50;99.90
3202;DHT22;34843;48.744;8.958;2023-10-08T02:52:44;10.40;99.90
3202;DHT22;34843;48.744;8.958;2023-10-08T02:55:12;10.40;99.90
3202;DHT22;34843;48.744;8.958;2023-10-08T02:57:59;10.40;99.90
3202;DHT22;34843;48.744;8.958;2023-10-08T03:00:25;10.30;99.90
3202;DHT22;34843;48.744;8.958;2023-10-08T03:02:58;10.30;99.90
3202;DHT22;34843;48.744;8.958;2023-10-08T03:05:26;10.30;99.90
3202;DHT22;34843;48.744;8.958;2023-10-08T03:08:01;10.30;99.90
3202;DHT22;34843;48.744;8.958;2023-10-08T03:10:27;10.30;99.90
3202;DHT22;34843;48.744;8.958;2023-10-08T03:12:58;10.30;99.90
3202;DHT22;34843;48.744;8.958;2023-10-08T03:15:29;10.30;99.90
3202;DHT22;34843;48.744;8.958;2023-10-08T03:17:59;10.20;99.90
3202;DHT22;34843;48.744;8.958;2023-10-08T03:20:35;10.20;99.90
3202;DHT22;34843;48.744;8.958;2023-10-08T03:23:07;10.10;99.90
3202;DHT22;34843;48.744;8.958;2023-10-08T03:25:56;10.10;99.90
3202;DHT22;34843;48.744;8.958;2023-10-08T03:28:26;10.00;99.90
3202;DHT22;34843;48.744;8.958;2023-10-08T03:30:54;9.90;99.90
3202;DHT22;34843;48.744;8.958;2023-10-08T03:33:31;9.90;99.90
3202;DHT22;34843;48.744;8.958;2023-10-08T03:36:08;9.90;99.90
3202;DHT22;34843;48.744;8.958;2023-10-08T03:38:39;9.90;99.90
3202;DHT22;34843;48.744;8.958;2023-10-08T03:41:11;9.90;99.90
3202;DHT22;34843;48.744;8.958;2023-10-08T03:43:44;9.90;99.90
3202;DHT22;34843;48.744;8.958;2023-10-08T03:46:31;9.90;99.90
3202;DHT22;34843;48.744;8.958;2023-10-08T03:48:58;9.90;99.90
3202;DHT22;34843;48.744;8.958;2023-10-08T03:51:30;9.80;99.90
3202;DHT22;34843;48.744;8.958;2023-10-08T03:54:00;9.80;99.90
3202;DHT22;34843;48.744;8.958;2023-10-08T03:56:42;9.80;99.90
3202;DHT22;34843;48.744;8.958;2023-10-08T03:59:17;9.80;99.90
3202;DHT22;34843;48.744;8.958;2023-10-08T04:02:00;9.80;99.90
3202;DHT22;34843;48.744;8.958;2023-10-08T04:04:42;9.80;99.90
3202;DHT22;34843;48.744;8.958;2023-10-08T04:07:16;9.80;99.90
3202;DHT22;34843;48.744;8.958;2023-10-08T04:09:50;9.70;99.90
3202;DHT22;34843;48.744;8.958;2023-10-08T04:12:20;9.80;99.90
3202;DHT22;34843;48.744;8.958;2023-10-08T04:14:46;9.70;99.90
3202;DHT22;34843;48.744;8.958;2023-10-08T04:17:11;9.70;99.90
3202;DHT22;34843;48.744;8.958;2023-10-08T04:19:37;9.70;99.90
3202;DHT22;34843;48.744;8.958;2023-10-08T04:22:02;9.70;99.90
3202;DHT22;34843;48.744;8.958;2023-10-08T04:24:28;9.60;99.90
3202;DHT22;34843;48.744;8.958;2023-10-08T04:26:57;9.60;99.90
3202;DHT22;34843;48.744;8.958;2023-10-08T04:29:23;9.60;99.90
3202;DHT22;34843;48.744;8.958;2023-10-08T04:31:49;9.60;99.90
3202;DHT22;34843;48.744;8.958;2023-10-08T04:34:27;9.60;99.90
3202;DHT22;34843;48.744;8.958;2023-10-08T04:36:53;9.70;99.90
3202;DHT22;34843;48.744;8.958;2023-10-08T04:39:40;9.70;99.90
3202;DHT22;34843;48.744;8.958;2023-10-08T04:42:12;9.80;99.90
3202;DHT22;34843;48.744;8.958;2023-10-08T04:44:38;9.80;99.90
3202;DHT22;34843;48.744;8.958;2023-10-08T04:47:07;9.80;99.90
3202;DHT22;34843;48.744;8.958;2023-10-08T04:49:52;9.90;99.90
3202;DHT22;34843;48.744;8.958;2023-10-08T04:52:18;9.90;99.90
3202;DHT22;34843;48.744;8.958;2023-10-08T04:54:45;9.90;99.90
3202;DHT22;34843;48.744;8.958;2023-10-08T04:57:19;9.90;99.90
3202;DHT22;34843;48.744;8.958;2023-10-08T04:59:48;9.90;99.90
3202;DHT22;34843;48.744;8.958;2023-10-08T05:02:15;9.90;99.90
3202;DHT22;34843;48.744;8.958;2023-10-08T05:05:01;9.90;99.90
3202;DHT22;34843;48.744;8.958;2023-10-08T05:07:36;9.90;99.90
3202;DHT22;34843;48.744;8.958;2023-10-08T05:10:12;9.80;99.90
3202;DHT22;34843;48.744;8.958;2023-10-08T05:12:38;9.80;99.90
3202;DHT22;34843;48.744;8.958;2023-10-08T05:15:11;9.80;99.90
3202;DHT22;34843;48.744;8.958;2023-10-08T05:17:44;9.70;99.90
3202;DHT22;34843;48.744;8.958;2023-10-08T05:20:20;9.70;99.90
3202;DHT22;34843;48.744;8.958;2023-10-08T05:23:12;9.70;99.90
3202;DHT22;34843;48.744;8.958;2023-10-08T05:25:54;9.70;99.90
3202;DHT22;34843;48.744;8.958;2023-10-08T05:28:25;9.70;99.90
3202;DHT22;34843;48.744;8.958;2023-10-08T05:30:52;9.70;99.90
3202;DHT22;34843;48.744;8.958;2023-10-08T05:33:30;9.70;99.90
3202;DHT22;34843;48.744;8.958;2023-10-08T05:36:14;9.70;99.90
3202;DHT22;34843;48.744;8.958;2023-10-08T05:38:54;9.70;99.90
3202;DHT22;34843;48.744;8.958;2023-10-08T05:41:29;9.70;99.90
3202;DHT22;34843;48.744;8.958;2023-10-08T05:44:05;9.80;99.90
3202;DHT22;34843;48.744;8.958;2023-10-08T05:46:49;9.80;99.90
3202;DHT22;34843;48.744;8.958;2023-10-08T05:49:32;9.90;99.90
3202;DHT22;34843;48.744;8.958;2023-10-08T05:51:58;9.90;99.90
3202;DHT22;34843;48.744;8.958;2023-10-08T05:54:30;9.90;99.90
3202;DHT22;34843;48.744;8.958;2023-10-08T05:57:01;10.00;99.90
3202;DHT22;34843;48.744;8.958;2023-10-08T05:59:44;10.00;99.90
3202;DHT22;34843;48.744;8.958;2023-10-08T06:02:29;10.00;99.90
3202;DHT22;34843;48.744;8.958;2023-10-08T06:07:39;10.00;99.90
3202;DHT22;34843;48.744;8.958;2023-10-08T06:10:20;10.00;99.90
3202;DHT22;34843;48.744;8.958;2023-10-08T06:13:05;10.10;99.90
3202;DHT22;34843;48.744;8.958;2023-10-08T06:15:50;10.20;99.90
3202;DHT22;34843;48.744;8.958;2023-10-08T06:18:20;10.20;99.90
3202;DHT22;34843;48.744;8.958;2023-10-08T06:20:55;10.30;99.90
3202;DHT22;34843;48.744;8.958;2023-10-08T06:23:21;10.50;99.90
3202;DHT22;34843;48.744;8.958;2023-10-08T06:25:49;10.70;99.90
3202;DHT22;34843;48.744;8.958;2023-10-08T06:28:20;10.90;99.90
3202;DHT22;34843;48.744;8.958;2023-10-08T06:30:46;11.10;99.90
3202;DHT22;34843;48.744;8.958;2023-10-08T06:33:12;11.20;99.90
3202;DHT22;34843;48.744;8.958;2023-10-08T06:35:38;11.20;99.90
3202;DHT22;34843;48.744;8.958;2023-10-08T06:38:10;11.40;99.90
3202;DHT22;34843;48.744;8.958;2023-10-08T06:40:36;11.50;99.90
3202;DHT22;34843;48.744;8.958;2023-10-08T06:43:03;11.70;99.90
3202;DHT22;34843;48.744;8.958;2023-10-08T06:45:38;11.80;99.90
3202;DHT22;34843;48.744;8.958;2023-10-08T06:48:06;12.00;99.90
3202;DHT22;34843;48.744;8.958;2023-10-08T06:50:32;12.20;99.90
3202;DHT22;34843;48.744;8.958;2023-10-08T06:53:06;12.60;99.90
3202;DHT22;34843;48.744;8.958;2023-10-08T06:55:33;13.20;99.90
3202;DHT22;34843;48.744;8.958;2023-10-08T06:58:01;14.20;99.90
3202;DHT22;34843;48.744;8.958;2023-10-08T07:00:34;14.70;99.90
3202;DHT22;34843;48.744;8.958;2023-10-08T07:03:08;15.30;99.90
3202;DHT22;34843;48.744;8.958;2023-10-08T07:05:44;15.80;99.90
3202;DHT22;34843;48.744;8.958;2023-10-08T07:08:22;16.30;99.90
3202;DHT22;34843;48.744;8.958;2023-10-08T07:10:49;16.60;99.90
3202;DHT22;34843;48.744;8.958;2023-10-08T07:13:15;16.70;99.90
3202;DHT22;34843;48.744;8.958;2023-10-08T07:15:45;17.30;99.90
3202;DHT22;34843;48.744;8.958;2023-10-08T07:18:12;18.20;99.90
3202;DHT22;34843;48.744;8.958;2023-10-08T07:20:46;18.70;99.90
3202;DHT22;34843;48.744;8.958;2023-10-08T07:23:18;19.30;99.90
3202;DHT22;34843;48.744;8.958;2023-10-08T07:25:54;19.90;99.90
3202;DHT22;34843;48.744;8.958;2023-10-08T07:28:27;20.50;99.90
3202;DHT22;34843;48.744;8.958;2023-10-08T07:30:54;20.70;99.90
3202;DHT22;34843;48.744;8.958;2023-10-08T07:33:20;21.30;99.90
3202;DHT22;34843;48.744;8.958;2023-10-08T07:35:51;22.10;99.90
3202;DHT22;34843;48.744;8.958;2023-10-08T07:38:26;21.90;99.90
3202;DHT22;34843;48.744;8.958;2023-10-08T07:40:55;21.40;99.90
3202;DHT22;34843;48.744;8.958;2023-10-08T07:43:21;20.80;99.90
3202;DHT22;34843;48.744;8.958;2023-10-08T07:45:47;20.30;99.90
3202;DHT22;34843;48.744;8.958;2023-10-08T07:48:13;19.80;99.90
3202;DHT22;34843;48.744;8.958;2023-10-08T07:50:44;19.50;99.90
3202;DHT22;34843;48.744;8.958;2023-10-08T07:53:12;19.30;99.90
3202;DHT22;34843;48.744;8.958;2023-10-08T07:55:44;18.80;99.90
3202;DHT22;34843;48.744;8.958;2023-10-08T07:58:11;18.40;99.90
3202;DHT22;34843;48.744;8.958;2023-10-08T08:00:36;18.00;99.90
3202;DHT22;34843;48.744;8.958;2023-10-08T08:03:04;17.70;99.90
3202;DHT22;34843;48.744;8.958;2023-10-08T08:05:30;17.80;99.90
3202;DHT22;34843;48.744;8.958;2023-10-08T08:07:56;17.80;99.90
3202;DHT22;34843;48.744;8.958;2023-10-08T08:10:24;17.70;99.90
3202;DHT22;34843;48.744;8.958;2023-10-08T08:12:49;17.60;99.90
3202;DHT22;34843;48.744;8.958;2023-10-08T08:15:21;17.60;99.90
3202;DHT22;34843;48.744;8.958;2023-10-08T08:17:48;17.50;99.90
3202;DHT22;34843;48.744;8.958;2023-10-08T08:20:14;17.50;99.90
3202;DHT22;34843;48.744;8.958;2023-10-08T08:23:00;17.50;99.90
3202;DHT22;34843;48.744;8.958;2023-10-08T08:25:43;17.60;99.90
3202;DHT22;34843;48.744;8.958;2023-10-08T08:28:31;17.50;99.90
3202;DHT22;34843;48.744;8.958;2023-10-08T08:31:02;17.70;99.90
3202;DHT22;34843;48.744;8.958;2023-10-08T08:33:30;17.90;99.90
3202;DHT22;34843;48.744;8.958;2023-10-08T08:36:16;18.10;99.90
3202;DHT22;34843;48.744;8.958;2023-10-08T08:38:43;18.20;99.90
3202;DHT22;34843;48.744;8.958;2023-10-08T08:41:09;18.30;99.90
3202;DHT22;34843;48.744;8.958;2023-10-08T08:43:38;18.40;99.90
3202;DHT22;34843;48.744;8.958;2023-10-08T08:46:09;18.40;99.90
3202;DHT22;34843;48.744;8.958;2023-10-08T08:48:40;18.60;99.90
3202;DHT22;34843;48.744;8.958;2023-10-08T08:51:06;18.70;99.90
3202;DHT22;34843;48.744;8.958;2023-10-08T08:53:36;18.90;99.90
3202;DHT22;34843;48.744;8.958;2023-10-08T08:56:02;18.90;99.90
3202;DHT22;34843;48.744;8.958;2023-10-08T08:58:33;19.20;99.90
3202;DHT22;34843;48.744;8.958;2023-10-08T09:00:59;19.50;99.90
3202;DHT22;34843;48.744;8.958;2023-10-08T09:03:25;19.80;99.90
3202;DHT22;34843;48.744;8.958;2023-10-08T09:05:56;20.00;99.90
3202;DHT22;34843;48.744;8.958;2023-10-08T09:08:22;20.20;99.90
3202;DHT22;34843;48.744;8.958;2023-10-08T09:10:49;20.30;99.90
3202;DHT22;34843;48.744;8.958;2023-10-08T09:13:21;20.40;99.90
3202;DHT22;34843;48.744;8.958;2023-10-08T09:15:48;20.40;99.90
3202;DHT22;34843;48.744;8.958;2023-10-08T09:18:14;20.50;99.90
3202;DHT22;34843;48.744;8.958;2023-10-08T09:20:40;20.40;99.90
3202;DHT22;34843;48.744;8.958;2023-10-08T09:23:11;20.50;99.90
3202;DHT22;34843;48.744;8.958;2023-10-08T09:25:45;20.70;99.90
3202;DHT22;34843;48.744;8.958;2023-10-08T09:28:11;20.80;99.90
3202;DHT22;34843;48.744;8.958;2023-10-08T09:30:40;21.10;99.90
3202;DHT22;34843;48.744;8.958;2023-10-08T09:33:08;21.60;99.90
3202;DHT22;34843;48.744;8.958;2023-10-08T09:35:34;22.30;99.90
3202;DHT22;34843;48.744;8.958;2023-10-08T09:38:02;23.10;99.90
3202;DHT22;34843;48.744;8.958;2023-10-08T09:40:28;23.50;99.90
3202;DHT22;34843;48.744;8.958;2023-10-08T09:42:55;23.80;99.90
3202;DHT22;34843;48.744;8.958;2023-10-08T09:45:21;24.00;99.90
3202;DHT22;34843;48.744;8.958;2023-10-08T09:47:50;24.30;99.90
3202;DHT22;34843;48.744;8.958;2023-10-08T09:50:22;24.40;99.90
3202;DHT22;34843;48.744;8.958;2023-10-08T09:53:10;24.60;99.90
3202;DHT22;34843;48.744;8.958;2023-10-08T09:55:49;25.00;99.90
3202;DHT22;34843;48.744;8.958;2023-10-08T09:58:20;25.20;99.90
3202;DHT22;34843;48.744;8.958;2023-10-08T10:00:48;25.30;99.90
3202;DHT22;34843;48.744;8.958;2023-10-08T10:03:15;25.40;99.90
3202;DHT22;34843;48.744;8.958;2023-10-08T10:05:42;25.10;99.90
3202;DHT22;34843;48.744;8.958;2023-10-08T10:08:08;24.90;99.90
3202;DHT22;34843;48.744;8.958;2023-10-08T10:10:38;24.60;99.90
3202;DHT22;34843;48.744;8.958;2023-10-08T10:13:05;24.40;99.90
3202;DHT22;34843;48.744;8.958;2023-10-08T10:15:33;24.30;99.90
3202;DHT22;34843;48.744;8.958;2023-10-08T10:18:12;24.40;99.90
3202;DHT22;34843;48.744;8.958;2023-10-08T10:20:43;24.60;99.90
3202;DHT22;34843;48.744;8.958;2023-10-08T10:23:41;24.80;99.90
3202;DHT22;34843;48.744;8.958;2023-10-08T10:31:44;24.80;99.90
3202;DHT22;34843;48.744;8.958;2023-10-08T10:34:13;24.80;99.90
3202;DHT22;34843;48.744;8.958;2023-10-08T10:36:42;24.80;99.90
3202;DHT22;34843;48.744;8.958;2023-10-08T10:39:12;24.80;99.90
3202;DHT22;34843;48.744;8.958;2023-10-08T10:41:58;24.70;99.90
3202;DHT22;34843;48.744;8.958;2023-10-08T10:44:29;24.60;99.90
3202;DHT22;34843;48.744;8.958;2023-10-08T10:46:56;24.50;99.90
3202;DHT22;34843;48.744;8.958;2023-10-08T10:49:41;24.20;99.90
3202;DHT22;34843;48.744;8.958;2023-10-08T10:52:22;23.80;99.90
3202;DHT22;34843;48.744;8.958;2023-10-08T10:55:05;23.60;99.90
3202;DHT22;34843;48.744;8.958;2023-10-08T10:57:46;23.70;99.90
3202;DHT22;34843;48.744;8.958;2023-10-08T11:00:20;23.70;99.90
3202;DHT22;34843;48.744;8.958;2023-10-08T11:02:57;24.10;99.90
3202;DHT22;34843;48.744;8.958;2023-10-08T11:05:29;24.50;99.90
3202;DHT22;34843;48.744;8.958;2023-10-08T11:07:56;24.70;99.90
3202;DHT22;34843;48.744;8.958;2023-10-08T11:10:33;24.70;99.90
3202;DHT22;34843;48.744;8.958;2023-10-08T11:12:59;24.70;99.90
3202;DHT22;34843;48.744;8.958;2023-10-08T11:15:29;24.80;99.90
3202;DHT22;34843;48.744;8.958;2023-10-08T11:18:13;24.90;99.90
3202;DHT22;34843;48.744;8.958;2023-10-08T11:20:40;25.00;99.90
3202;DHT22;34843;48.744;8.958;2023-10-08T11:23:10;25.00;99.90
3202;DHT22;34843;48.744;8.958;2023-10-08T11:28:20;24.80;99.90
3202;DHT22;34843;48.744;8.958;2023-10-08T11:30:47;24.70;99.90
3202;DHT22;34843;48.744;8.958;2023-10-08T11:33:17;24.50;99.90
3202;DHT22;34843;48.744;8.958;2023-10-08T11:36:02;24.30;99.90
3202;DHT22;34843;48.744;8.958;2023-10-08T11:38:38;24.10;99.90
3202;DHT22;34843;48.744;8.958;2023-10-08T11:41:14;24.00;99.90
3202;DHT22;34843;48.744;8.958;2023-10-08T11:43:47;23.90;99.90
3202;DHT22;34843;48.744;8.958;2023-10-08T11:46:13;23.90;99.90
3202;DHT22;34843;48.744;8.958;2023-10-08T11:48:43;23.70;99.90
3202;DHT22;34843;48.744;8.958;2023-10-08T11:51:12;23.70;99.90
3202;DHT22;34843;48.744;8.958;2023-10-08T11:53:38;23.70;99.90
3202;DHT22;34843;48.744;8.958;2023-10-08T11:56:04;23.80;99.90
3202;DHT22;34843;48.744;8.958;2023-10-08T11:58:39;23.80;99.90
3202;DHT22;34843;48.744;8.958;2023-10-08T12:01:05;23.80;99.90
3202;DHT22;34843;48.744;8.958;2023-10-08T12:03:31;23.90;99.90
3202;DHT22;34843;48.744;8.958;2023-10-08T12:05:57;24.00;99.90
3202;DHT22;34843;48.744;8.958;2023-10-08T12:08:26;24.20;99.90
3202;DHT22;34843;48.744;8.958;2023-10-08T12:10:54;24.40;99.90
3202;DHT22;34843;48.744;8.958;2023-10-08T12:13:20;24.60;99.90
3202;DHT22;34843;48.744;8.958;2023-10-08T12:15:54;24.70;99.90
3202;DHT22;34843;48.744;8.958;2023-10-08T12:18:34;24.80;99.90
3202;DHT22;34843;48.744;8.958;2023-10-08T12:21:05;24.80;99.90
3202;DHT22;34843;48.744;8.958;2023-10-08T12:23:36;24.80;99.90
3202;DHT22;34843;48.744;8.958;2023-10-08T12:26:03;24.80;99.90
3202;DHT22;34843;48.744;8.958;2023-10-08T12:28:28;24.80;99.90
3202;DHT22;34843;48.744;8.958;2023-10-08T12:30:55;24.80;99.90
3202;DHT22;34843;48.744;8.958;2023-10-08T12:33:26;24.80;99.90
3202;DHT22;34843;48.744;8.958;2023-10-08T12:35:52;24.80;99.90
3202;DHT22;34843;48.744;8.958;2023-10-08T12:38:36;24.80;99.90
3202;DHT22;34843;48.744;8.958;2023-10-08T12:41:02;24.80;99.90
3202;DHT22;34843;48.744;8.958;2023-10-08T12:43:37;24.90;99.90
3202;DHT22;34843;48.744;8.958;2023-10-08T12:46:04;24.90;99.90
3202;DHT22;34843;48.744;8.958;2023-10-08T12:48:36;24.90;99.90
3202;DHT22;34843;48.744;8.958;2023-10-08T12:51:02;24.90;99.90
3202;DHT22;34843;48.744;8.958;2023-10-08T12:53:31;24.90;99.90
3202;DHT22;34843;48.744;8.958;2023-10-08T12:56:00;24.90;99.90
3202;DHT22;34843;48.744;8.958;2023-10-08T12:58:32;24.90;99.90
3202;DHT22;34843;48.744;8.958;2023-10-08T13:01:00;25.00;99.90
3202;DHT22;34843;48.744;8.958;2023-10-08T13:03:29;25.00;99.90
3202;DHT22;34843;48.744;8.958;2023-10-08T13:05:59;25.00;99.90
3202;DHT22;34843;48.744;8.958;2023-10-08T13:08:32;25.00;99.90
3202;DHT22;34843;48.744;8.958;2023-10-08T13:11:01;25.00;99.90
3202;DHT22;34843;48.744;8.958;2023-10-08T13:13:30;25.00;99.90
3202;DHT22;34843;48.744;8.958;2023-10-08T13:15:56;25.00;99.90
3202;DHT22;34843;48.744;8.958;2023-10-08T13:18:24;24.80;99.90
3202;DHT22;34843;48.744;8.958;2023-10-08T13:20:53;24.90;99.90
3202;DHT22;34843;48.744;8.958;2023-10-08T13:23:19;24.90;99.90
3202;DHT22;34843;48.744;8.958;2023-10-08T13:25:46;24.90;99.90
3202;DHT22;34843;48.744;8.958;2023-10-08T13:28:18;24.90;99.90
3202;DHT22;34843;48.744;8.958;2023-10-08T13:30:46;25.00;99.90
3202;DHT22;34843;48.744;8.958;2023-10-08T13:33:12;25.00;99.90
3202;DHT22;34843;48.744;8.958;2023-10-08T13:35:37;25.00;99.90
3202;DHT22;34843;48.744;8.958;2023-10-08T13:38:03;25.00;99.90
3202;DHT22;34843;48.744;8.958;2023-10-08T13:40:35;25.10;99.90
3202;DHT22;34843;48.744;8.958;2023-10-08T13:43:05;25.10;99.90
3202;DHT22;34843;48.744;8.958;2023-10-08T13:45:31;25.10;99.90
3202;DHT22;34843;48.744;8.958;2023-10-08T13:47:58;25.20;99.90
3202;DHT22;34843;48.744;8.958;2023-10-08T13:50:27;25.30;99.90
3202;DHT22;34843;48.744;8.958;2023-10-08T13:52:55;25.20;99.90
3202;DHT22;34843;48.744;8.958;2023-10-08T13:55:21;25.20;99.90
3202;DHT22;34843;48.744;8.958;2023-10-08T13:57:51;25.20;99.90
3202;DHT22;34843;48.744;8.958;2023-10-08T14:00:16;25.20;99.90
3202;DHT22;34843;48.744;8.958;2023-10-08T14:02:51;25.20;99.90
3202;DHT22;34843;48.744;8.958;2023-10-08T14:05:19;25.20;99.90
3202;DHT22;34843;48.744;8.958;2023-10-08T14:07:49;25.20;99.90
3202;DHT22;34843;48.744;8.958;2023-10-08T14:10:14;25.20;99.90
3202;DHT22;34843;48.744;8.958;2023-10-08T14:12:45;25.10;99.90
3202;DHT22;34843;48.744;8.958;2023-10-08T14:15:17;25.00;99.90
3202;DHT22;34843;48.744;8.958;2023-10-08T14:17:44;25.00;99.90
3202;DHT22;34843;48.744;8.958;2023-10-08T14:20:14;25.00;99.90
3202;DHT22;34843;48.744;8.958;2023-10-08T14:22:55;25.00;99.90
3202;DHT22;34843;48.744;8.958;2023-10-08T14:25:26;24.90;99.90
3202;DHT22;34843;48.744;8.958;2023-10-08T14:27:53;24.90;99.90
3202;DHT22;34843;48.744;8.958;2023-10-08T14:30:19;24.80;99.90
3202;DHT22;34843;48.744;8.958;2023-10-08T14:32:49;24.80;99.90
3202;DHT22;34843;48.744;8.958;2023-10-08T14:35:15;24.70;99.90
3202;DHT22;34843;48.744;8.958;2023-10-08T14:38:00;24.70;99.90
3202;DHT22;34843;48.744;8.958;2023-10-08T14:40:45;24.60;99.90
3202;DHT22;34843;48.744;8.958;2023-10-08T14:43:30;24.60;99.90
3202;DHT22;34843;48.744;8.958;2023-10-08T14:46:03;24.50;99.90
3202;DHT22;34843;48.744;8.958;2023-10-08T14:48:35;24.50;99.90
3202;DHT22;34843;48.744;8.958;2023-10-08T14:51:03;24.40;99.90
3202;DHT22;34843;48.744;8.958;2023-10-08T14:53:29;24.30;99.90
3202;DHT22;34843;48.744;8.958;2023-10-08T14:55:56;24.20;99.90
3202;DHT22;34843;48.744;8.958;2023-10-08T14:58:23;24.20;99.90
3202;DHT22;34843;48.744;8.958;2023-10-08T15:00:50;24.20;99.90
3202;DHT22;34843;48.744;8.958;2023-10-08T15:03:19;24.20;99.90
3202;DHT22;34843;48.744;8.958;2023-10-08T15:05:46;24.20;99.90
3202;DHT22;34843;48.744;8.958;2023-10-08T15:08:13;24.10;99.90
3202;DHT22;34843;48.744;8.958;2023-10-08T15:10:40;24.10;99.90
3202;DHT22;34843;48.744;8.958;2023-10-08T15:13:06;24.00;99.90
3202;DHT22;34843;48.744;8.958;2023-10-08T15:15:32;23.90;99.90
3202;DHT22;34843;48.744;8.958;2023-10-08T15:18:00;23.80;99.90
3202;DHT22;34843;48.744;8.958;2023-10-08T15:20:31;23.70;99.90
3202;DHT22;34843;48.744;8.958;2023-10-08T15:22:59;23.50;99.90
3202;DHT22;34843;48.744;8.958;2023-10-08T15:25:24;23.40;99.90
3202;DHT22;34843;48.744;8.958;2023-10-08T15:27:50;23.30;99.90
3202;DHT22;34843;48.744;8.958;2023-10-08T15:30:18;23.30;99.90
3202;DHT22;34843;48.744;8.958;2023-10-08T15:32:48;23.20;99.90
3202;DHT22;34843;48.744;8.958;2023-10-08T15:35:16;23.30;99.90
3202;DHT22;34843;48.744;8.958;2023-10-08T15:37:45;23.30;99.90
3202;DHT22;34843;48.744;8.958;2023-10-08T15:40:11;23.40;99.90
3202;DHT22;34843;48.744;8.958;2023-10-08T15:42:54;23.30;99.90
3202;DHT22;34843;48.744;8.958;2023-10-08T15:45:21;23.30;99.90
3202;DHT22;34843;48.744;8.958;2023-10-08T15:47:47;23.30;99.90
3202;DHT22;34843;48.744;8.958;2023-10-08T15:50:14;23.40;99.90
3202;DHT22;34843;48.744;8.958;2023-10-08T15:52:40;23.30;99.90
3202;DHT22;34843;48.744;8.958;2023-10-08T15:55:07;23.30;99.90
3202;DHT22;34843;48.744;8.958;2023-10-08T15:57:33;23.20;99.90
3202;DHT22;34843;48.744;8.958;2023-10-08T15:59:59;23.30;99.90
3202;DHT22;34843;48.744;8.958;2023-10-08T16:02:24;23.30;99.90
3202;DHT22;34843;48.744;8.958;2023-10-08T16:04:50;23.20;99.90
3202;DHT22;34843;48.744;8.958;2023-10-08T16:07:15;23.30;99.90
3202;DHT22;34843;48.744;8.958;2023-10-08T16:09:41;23.20;99.90
3202;DHT22;34843;48.744;8.958;2023-10-08T16:12:07;23.20;99.90
3202;DHT22;34843;48.744;8.958;2023-10-08T16:14:33;23.10;99.90
3202;DHT22;34843;48.744;8.958;2023-10-08T16:16:58;23.00;99.90
3202;DHT22;34843;48.744;8.958;2023-10-08T16:19:24;22.80;99.90
3202;DHT22;34843;48.744;8.958;2023-10-08T16:21:52;22.70;99.90